sensor_id;sensor_type;location;lat;lon;timestamp;temperature;humidity
52965;DHT22;42923;53.220;6.528;2022-10-17T00:00:04;11.80;99.90
52965;DHT22;42923;53.220;6.528;2022-10-17T00:02:30;11.70;99.90
52965;DHT22;42923;53.220;6.528;2022-10-17T00:04:56;11.70;99.90
52965;DHT22;42923;53.220;6.528;2022-10-17T00:07:22;11.60;99.90
52965;DHT22;42923;53.220;6.528;2022-10-17T00:09:47;11.50;99.90
52965;DHT22;42923;53.220;6.528;2022-10-17T00:12:13;11.60;99.90
52965;DHT22;42923;53.220;6.528;2022-10-17T00:14:39;11.60;99.90
52965;DHT22;42923;53.220;6.528;2022-10-17T00:17:05;11.60;99.90
52965;DHT22;42923;53.220;6.528;2022-10-17T00:19:30;11.80;99.90
52965;DHT22;42923;53.220;6.528;2022-10-17T00:21:56;11.60;99.90
52965;DHT22;42923;53.220;6.528;2022-10-17T00:24:22;11.60;99.90
52965;DHT22;42923;53.220;6.528;2022-10-17T00:26:47;11.60;99.90
52965;DHT22;42923;53.220;6.528;2022-10-17T00:29:13;11.90;99.90
52965;DHT22;42923;53.220;6.528;2022-10-17T00:31:39;11.70;99.90
52965;DHT22;42923;53.220;6.528;2022-10-17T00:34:05;11.70;99.90
52965;DHT22;42923;53.220;6.528;2022-10-17T00:36:30;11.80;99.90
52965;DHT22;42923;53.220;6.528;2022-10-17T00:38:57;11.90;99.90
52965;DHT22;42923;53.220;6.528;2022-10-17T00:41:27;11.90;99.90
52965;DHT22;42923;53.220;6.528;2022-10-17T00:44:03;11.90;99.90
52965;DHT22;42923;53.220;6.528;2022-10-17T00:46:34;11.90;99.90
52965;DHT22;42923;53.220;6.528;2022-10-17T00:49:10;12.00;99.90
52965;DHT22;42923;53.220;6.528;2022-10-17T00:51:40;12.00;99.90
52965;DHT22;42923;53.220;6.528;2022-10-17T00:54:08;12.00;99.90
52965;DHT22;42923;53.220;6.528;2022-10-17T00:56:34;12.00;99.90
52965;DHT22;42923;53.220;6.528;2022-10-17T00:59:01;12.00;99.90
52965;DHT22;42923;53.220;6.528;2022-10-17T01:01:27;12.00;99.90
52965;DHT22;42923;53.220;6.528;2022-10-17T01:03:52;12.00;99.90
52965;DHT22;42923;53.220;6.528;2022-10-17T01:06:18;12.10;99.90
52965;DHT22;42923;53.220;6.528;2022-10-17T01:08:44;12.10;99.90
52965;DHT22;42923;53.220;6.528;2022-10-17T01:16:53;12.20;99.90
52965;DHT22;42923;53.220;6.528;2022-10-17T01:30:15;12.20;99.90
52965;DHT22;42923;53.220;6.528;2022-10-17T01:32:58;12.30;99.90
52965;DHT22;42923;53.220;6.528;2022-10-17T01:39:05;12.30;99.90
52965;DHT22;42923;53.220;6.528;2022-10-17T01:44:00;12.50;99.90
52965;DHT22;42923;53.220;6.528;2022-10-17T01:46:32;12.50;99.90
52965;DHT22;42923;53.220;6.528;2022-10-17T01:49:02;12.60;99.90
52965;DHT22;42923;53.220;6.528;2022-10-17T01:51:53;12.60;99.90
52965;DHT22;42923;53.220;6.528;2022-10-17T01:54:44;12.70;99.90
52965;DHT22;42923;53.220;6.528;2022-10-17T01:57:26;12.70;99.90
52965;DHT22;42923;53.220;6.528;2022-10-17T01:59:54;12.80;99.90
52965;DHT22;42923;53.220;6.528;2022-10-17T02:02:22;12.80;99.90
52965;DHT22;42923;53.220;6.528;2022-10-17T02:04:50;12.80;99.90
52965;DHT22;42923;53.220;6.528;2022-10-17T02:07:16;12.80;99.90
52965;DHT22;42923;53.220;6.528;2022-10-17T02:09:43;12.90;99.90
52965;DHT22;42923;53.220;6.528;2022-10-17T02:15:22;12.90;99.90
52965;DHT22;42923;53.220;6.528;2022-10-17T02:18:39;12.80;99.90
52965;DHT22;42923;53.220;6.528;2022-10-17T02:21:02;12.80;99.90
52965;DHT22;42923;53.220;6.528;2022-10-17T02:26:42;12.70;99.90
52965;DHT22;42923;53.220;6.528;2022-10-17T02:31:53;12.60;99.90
52965;DHT22;42923;53.220;6.528;2022-10-17T02:34:41;12.60;99.90
52965;DHT22;42923;53.220;6.528;2022-10-17T02:37:10;12.50;99.90
52965;DHT22;42923;53.220;6.528;2022-10-17T02:39:39;12.50;99.90
52965;DHT22;42923;53.220;6.528;2022-10-17T02:42:09;12.60;99.90
52965;DHT22;42923;53.220;6.528;2022-10-17T02:44:42;12.50;99.90
52965;DHT22;42923;53.220;6.528;2022-10-17T02:49:48;12.40;99.90
52965;DHT22;42923;53.220;6.528;2022-10-17T02:55:15;12.40;99.90
52965;DHT22;42923;53.220;6.528;2022-10-17T02:57:55;12.30;99.90
52965;DHT22;42923;53.220;6.528;2022-10-17T03:00:22;12.30;99.90
52965;DHT22;42923;53.220;6.528;2022-10-17T03:02:50;12.30;99.90
52965;DHT22;42923;53.220;6.528;2022-10-17T03:05:22;12.30;99.90
52965;DHT22;42923;53.220;6.528;2022-10-17T03:07:48;12.30;99.90
52965;DHT22;42923;53.220;6.528;2022-10-17T03:10:14;12.30;99.90
52965;DHT22;42923;53.220;6.528;2022-10-17T03:12:40;12.30;99.90
52965;DHT22;42923;53.220;6.528;2022-10-17T03:15:08;12.30;99.90
52965;DHT22;42923;53.220;6.528;2022-10-17T03:17:35;12.30;99.90
52965;DHT22;42923;53.220;6.528;2022-10-17T03:20:01;12.30;99.90
52965;DHT22;42923;53.220;6.528;2022-10-17T03:22:28;12.30;99.90
52965;DHT22;42923;53.220;6.528;2022-10-17T03:24:55;12.30;99.90
52965;DHT22;42923;53.220;6.528;2022-10-17T03:27:21;12.30;99.90
52965;DHT22;42923;53.220;6.528;2022-10-17T03:29:46;12.40;99.90
52965;DHT22;42923;53.220;6.528;2022-10-17T03:32:14;12.40;99.90
52965;DHT22;42923;53.220;6.528;2022-10-17T03:34:40;12.40;99.90
52965;DHT22;42923;53.220;6.528;2022-10-17T03:37:06;12.50;99.90
52965;DHT22;42923;53.220;6.528;2022-10-17T03:39:34;12.40;99.90
52965;DHT22;42923;53.220;6.528;2022-10-17T03:42:01;12.40;99.90
52965;DHT22;42923;53.220;6.528;2022-10-17T03:44:26;12.40;99.90
52965;DHT22;42923;53.220;6.528;2022-10-17T03:46:53;12.40;99.90
52965;DHT22;42923;53.220;6.528;2022-10-17T03:49:19;12.40;99.90
52965;DHT22;42923;53.220;6.528;2022-10-17T03:51:45;12.40;99.90
52965;DHT22;42923;53.220;6.528;2022-10-17T03:54:13;12.40;99.90
52965;DHT22;42923;53.220;6.528;2022-10-17T03:56:39;12.40;99.90
52965;DHT22;42923;53.220;6.528;2022-10-17T03:59:13;12.50;99.90
52965;DHT22;42923;53.220;6.528;2022-10-17T04:01:41;12.40;99.90
52965;DHT22;42923;53.220;6.528;2022-10-17T04:04:08;12.50;99.90
52965;DHT22;42923;53.220;6.528;2022-10-17T04:06:36;12.50;99.90
52965;DHT22;42923;53.220;6.528;2022-10-17T04:09:03;12.50;99.90
52965;DHT22;42923;53.220;6.528;2022-10-17T04:11:41;12.50;99.90
52965;DHT22;42923;53.220;6.528;2022-10-17T04:14:08;12.50;99.90
52965;DHT22;42923;53.220;6.528;2022-10-17T04:16:37;12.50;99.90
52965;DHT22;42923;53.220;6.528;2022-10-17T04:19:11;12.40;99.90
52965;DHT22;42923;53.220;6.528;2022-10-17T04:21:40;12.50;99.90
52965;DHT22;42923;53.220;6.528;2022-10-17T04:24:09;12.50;99.90
52965;DHT22;42923;53.220;6.528;2022-10-17T04:26:48;12.50;99.90
52965;DHT22;42923;53.220;6.528;2022-10-17T04:29:15;12.60;99.90
52965;DHT22;42923;53.220;6.528;2022-10-17T04:31:44;12.60;99.90
52965;DHT22;42923;53.220;6.528;2022-10-17T04:34:18;12.80;99.90
52965;DHT22;42923;53.220;6.528;2022-10-17T04:36:44;12.70;99.90
52965;DHT22;42923;53.220;6.528;2022-10-17T04:39:12;12.70;99.90
52965;DHT22;42923;53.220;6.528;2022-10-17T04:41:38;12.80;99.90
52965;DHT22;42923;53.220;6.528;2022-10-17T04:44:04;12.80;99.90
52965;DHT22;42923;53.220;6.528;2022-10-17T04:46:33;12.80;99.90
52965;DHT22;42923;53.220;6.528;2022-10-17T04:48:59;12.90;99.90
52965;DHT22;42923;53.220;6.528;2022-10-17T04:51:25;12.90;99.90
52965;DHT22;42923;53.220;6.528;2022-10-17T04:54:10;13.00;99.90
52965;DHT22;42923;53.220;6.528;2022-10-17T04:56:38;13.00;99.90
52965;DHT22;42923;53.220;6.528;2022-10-17T04:59:04;13.00;99.90
52965;DHT22;42923;53.220;6.528;2022-10-17T05:01:30;13.10;99.90
52965;DHT22;42923;53.220;6.528;2022-10-17T05:03:56;13.10;99.90
52965;DHT22;42923;53.220;6.528;2022-10-17T05:06:24;13.10;99.90
52965;DHT22;42923;53.220;6.528;2022-10-17T05:09:11;13.10;99.90
52965;DHT22;42923;53.220;6.528;2022-10-17T05:11:37;13.20;99.90
52965;DHT22;42923;53.220;6.528;2022-10-17T05:14:03;13.20;99.90
52965;DHT22;42923;53.220;6.528;2022-10-17T05:16:31;13.30;99.90
52965;DHT22;42923;53.220;6.528;2022-10-17T05:18:57;13.30;99.90
52965;DHT22;42923;53.220;6.528;2022-10-17T05:21:28;13.40;99.90
52965;DHT22;42923;53.220;6.528;2022-10-17T05:23:54;13.40;99.90
52965;DHT22;42923;53.220;6.528;2022-10-17T05:26:21;13.50;99.90
52965;DHT22;42923;53.220;6.528;2022-10-17T05:28:48;13.50;99.90
52965;DHT22;42923;53.220;6.528;2022-10-17T05:31:15;13.40;99.90
52965;DHT22;42923;53.220;6.528;2022-10-17T05:33:41;13.50;99.90
52965;DHT22;42923;53.220;6.528;2022-10-17T05:36:09;13.40;99.90
52965;DHT22;42923;53.220;6.528;2022-10-17T05:38:35;13.50;99.90
52965;DHT22;42923;53.220;6.528;2022-10-17T05:41:04;13.50;99.90
52965;DHT22;42923;53.220;6.528;2022-10-17T05:43:32;13.50;99.90
52965;DHT22;42923;53.220;6.528;2022-10-17T05:45:57;13.50;99.90
52965;DHT22;42923;53.220;6.528;2022-10-17T05:48:23;13.50;99.90
52965;DHT22;42923;53.220;6.528;2022-10-17T05:50:57;13.50;99.90
52965;DHT22;42923;53.220;6.528;2022-10-17T05:53:23;13.50;99.90
52965;DHT22;42923;53.220;6.528;2022-10-17T05:55:57;13.60;99.90
52965;DHT22;42923;53.220;6.528;2022-10-17T05:58:24;13.60;99.90
52965;DHT22;42923;53.220;6.528;2022-10-17T06:00:58;13.60;99.90
52965;DHT22;42923;53.220;6.528;2022-10-17T06:03:25;13.60;99.90
52965;DHT22;42923;53.220;6.528;2022-10-17T06:05:52;13.70;99.90
52965;DHT22;42923;53.220;6.528;2022-10-17T06:08:18;13.70;99.90
52965;DHT22;42923;53.220;6.528;2022-10-17T06:10:47;13.70;99.90
52965;DHT22;42923;53.220;6.528;2022-10-17T06:13:14;13.70;99.90
52965;DHT22;42923;53.220;6.528;2022-10-17T06:15:40;13.70;99.90
52965;DHT22;42923;53.220;6.528;2022-10-17T06:18:07;13.70;99.90
52965;DHT22;42923;53.220;6.528;2022-10-17T06:20:33;13.70;99.90
52965;DHT22;42923;53.220;6.528;2022-10-17T06:22:59;13.80;99.90
52965;DHT22;42923;53.220;6.528;2022-10-17T06:25:44;13.90;99.90
52965;DHT22;42923;53.220;6.528;2022-10-17T06:28:10;13.90;99.90
52965;DHT22;42923;53.220;6.528;2022-10-17T06:30:38;14.00;99.90
52965;DHT22;42923;53.220;6.528;2022-10-17T06:33:05;14.00;99.90
52965;DHT22;42923;53.220;6.528;2022-10-17T06:35:31;14.10;99.90
52965;DHT22;42923;53.220;6.528;2022-10-17T06:37:56;14.10;99.90
52965;DHT22;42923;53.220;6.528;2022-10-17T06:40:23;14.10;99.90
52965;DHT22;42923;53.220;6.528;2022-10-17T06:42:49;14.20;99.90
52965;DHT22;42923;53.220;6.528;2022-10-17T06:45:38;14.20;99.90
52965;DHT22;42923;53.220;6.528;2022-10-17T06:48:14;14.20;99.90
52965;DHT22;42923;53.220;6.528;2022-10-17T06:50:42;14.30;99.90
52965;DHT22;42923;53.220;6.528;2022-10-17T06:53:12;14.30;99.90
52965;DHT22;42923;53.220;6.528;2022-10-17T06:55:51;14.30;99.90
52965;DHT22;42923;53.220;6.528;2022-10-17T06:58:39;14.30;99.90
52965;DHT22;42923;53.220;6.528;2022-10-17T07:01:24;14.40;99.90
52965;DHT22;42923;53.220;6.528;2022-10-17T07:03:54;14.40;99.90
52965;DHT22;42923;53.220;6.528;2022-10-17T07:06:21;14.30;99.90
52965;DHT22;42923;53.220;6.528;2022-10-17T07:08:50;14.40;99.90
52965;DHT22;42923;53.220;6.528;2022-10-17T07:11:19;14.40;99.90
52965;DHT22;42923;53.220;6.528;2022-10-17T07:13:48;14.50;99.90
52965;DHT22;42923;53.220;6.528;2022-10-17T07:16:15;14.50;99.90
52965;DHT22;42923;53.220;6.528;2022-10-17T07:18:42;14.50;99.90
52965;DHT22;42923;53.220;6.528;2022-10-17T07:21:08;14.50;99.90
52965;DHT22;42923;53.220;6.528;2022-10-17T07:23:35;14.60;99.90
52965;DHT22;42923;53.220;6.528;2022-10-17T07:26:04;14.70;99.90
52965;DHT22;42923;53.220;6.528;2022-10-17T07:28:40;14.70;99.90
52965;DHT22;42923;53.220;6.528;2022-10-17T07:31:21;14.80;99.90
52965;DHT22;42923;53.220;6.528;2022-10-17T07:33:48;14.90;99.90
52965;DHT22;42923;53.220;6.528;2022-10-17T07:36:14;14.90;99.90
52965;DHT22;42923;53.220;6.528;2022-10-17T07:38:40;15.10;99.90
52965;DHT22;42923;53.220;6.528;2022-10-17T07:41:08;15.20;99.90
52965;DHT22;42923;53.220;6.528;2022-10-17T07:43:36;15.30;99.90
52965;DHT22;42923;53.220;6.528;2022-10-17T07:46:04;15.40;99.90
52965;DHT22;42923;53.220;6.528;2022-10-17T07:48:31;15.50;99.90
52965;DHT22;42923;53.220;6.528;2022-10-17T07:51:02;15.60;99.90
52965;DHT22;42923;53.220;6.528;2022-10-17T07:53:28;15.60;99.90
52965;DHT22;42923;53.220;6.528;2022-10-17T07:55:54;15.70;99.90
52965;DHT22;42923;53.220;6.528;2022-10-17T07:58:20;15.70;99.90
52965;DHT22;42923;53.220;6.528;2022-10-17T08:00:45;15.70;99.90
52965;DHT22;42923;53.220;6.528;2022-10-17T08:03:15;15.80;99.90
52965;DHT22;42923;53.220;6.528;2022-10-17T08:05:41;15.90;99.90
52965;DHT22;42923;53.220;6.528;2022-10-17T08:08:06;16.00;99.90
52965;DHT22;42923;53.220;6.528;2022-10-17T08:10:32;16.20;99.90
52965;DHT22;42923;53.220;6.528;2022-10-17T08:12:58;16.40;99.90
52965;DHT22;42923;53.220;6.528;2022-10-17T08:15:25;16.50;99.90
52965;DHT22;42923;53.220;6.528;2022-10-17T08:17:51;16.60;99.90
52965;DHT22;42923;53.220;6.528;2022-10-17T08:20:17;16.70;99.90
52965;DHT22;42923;53.220;6.528;2022-10-17T08:22:50;16.80;99.90
52965;DHT22;42923;53.220;6.528;2022-10-17T08:25:16;16.80;99.90
52965;DHT22;42923;53.220;6.528;2022-10-17T08:27:42;16.90;99.90
52965;DHT22;42923;53.220;6.528;2022-10-17T08:30:08;17.00;99.90
52965;DHT22;42923;53.220;6.528;2022-10-17T08:32:34;17.00;99.90
52965;DHT22;42923;53.220;6.528;2022-10-17T08:35:00;17.10;99.90
52965;DHT22;42923;53.220;6.528;2022-10-17T08:37:25;17.10;99.90
52965;DHT22;42923;53.220;6.528;2022-10-17T08:39:51;17.10;99.90
52965;DHT22;42923;53.220;6.528;2022-10-17T08:47:57;17.30;99.90
52965;DHT22;42923;53.220;6.528;2022-10-17T08:53:23;17.50;99.90
52965;DHT22;42923;53.220;6.528;2022-10-17T08:55:51;17.50;99.90
52965;DHT22;42923;53.220;6.528;2022-10-17T08:58:21;17.60;99.90
52965;DHT22;42923;53.220;6.528;2022-10-17T09:12:30;17.90;99.90
52965;DHT22;42923;53.220;6.528;2022-10-17T09:18:01;17.90;99.90
52965;DHT22;42923;53.220;6.528;2022-10-17T09:20:51;17.90;99.90
52965;DHT22;42923;53.220;6.528;2022-10-17T09:23:31;17.80;99.90
52965;DHT22;42923;53.220;6.528;2022-10-17T09:26:01;17.80;99.90
52965;DHT22;42923;53.220;6.528;2022-10-17T09:31:02;17.80;99.90
52965;DHT22;42923;53.220;6.528;2022-10-17T09:36:30;17.70;99.90
52965;DHT22;42923;53.220;6.528;2022-10-17T09:39:03;17.70;99.90
52965;DHT22;42923;53.220;6.528;2022-10-17T09:41:43;17.70;99.90
52965;DHT22;42923;53.220;6.528;2022-10-17T09:44:23;17.60;99.90
52965;DHT22;42923;53.220;6.528;2022-10-17T09:49:44;17.60;99.90
52965;DHT22;42923;53.220;6.528;2022-10-17T09:54:59;17.60;99.90
52965;DHT22;42923;53.220;6.528;2022-10-17T09:57:26;17.60;99.90
52965;DHT22;42923;53.220;6.528;2022-10-17T10:02:22;17.50;99.90
52965;DHT22;42923;53.220;6.528;2022-10-17T10:04:54;17.40;99.90
52965;DHT22;42923;53.220;6.528;2022-10-17T10:07:22;17.30;99.90
52965;DHT22;42923;53.220;6.528;2022-10-17T10:09:48;17.30;99.90
52965;DHT22;42923;53.220;6.528;2022-10-17T10:12:24;17.20;99.90
52965;DHT22;42923;53.220;6.528;2022-10-17T10:14:50;17.10;99.90
52965;DHT22;42923;53.220;6.528;2022-10-17T10:17:39;17.00;99.90
52965;DHT22;42923;53.220;6.528;2022-10-17T10:20:30;17.00;99.90
52965;DHT22;42923;53.220;6.528;2022-10-17T10:23:11;16.90;99.90
52965;DHT22;42923;53.220;6.528;2022-10-17T10:25:40;16.80;99.90
52965;DHT22;42923;53.220;6.528;2022-10-17T10:28:15;16.70;99.90
52965;DHT22;42923;53.220;6.528;2022-10-17T10:30:47;16.70;99.90
52965;DHT22;42923;53.220;6.528;2022-10-17T10:33:14;16.60;99.90
52965;DHT22;42923;53.220;6.528;2022-10-17T10:35:39;16.60;99.90
52965;DHT22;42923;53.220;6.528;2022-10-17T10:38:15;16.60;99.90
52965;DHT22;42923;53.220;6.528;2022-10-17T10:40:50;16.60;99.90
52965;DHT22;42923;53.220;6.528;2022-10-17T10:43:38;16.60;99.90
52965;DHT22;42923;53.220;6.528;2022-10-17T10:46:33;16.60;99.90
52965;DHT22;42923;53.220;6.528;2022-10-17T10:49:00;16.60;99.90
52965;DHT22;42923;53.220;6.528;2022-10-17T10:51:44;16.60;99.90
52965;DHT22;42923;53.220;6.528;2022-10-17T10:54:58;16.60;99.90
52965;DHT22;42923;53.220;6.528;2022-10-17T10:57:19;16.60;99.90
52965;DHT22;42923;53.220;6.528;2022-10-17T11:00:03;16.50;99.90
52965;DHT22;42923;53.220;6.528;2022-10-17T11:05:48;16.60;99.90
52965;DHT22;42923;53.220;6.528;2022-10-17T11:08:29;16.60;99.90
52965;DHT22;42923;53.220;6.528;2022-10-17T11:11:34;16.70;99.90
52965;DHT22;42923;53.220;6.528;2022-10-17T11:15:02;16.70;99.90
52965;DHT22;42923;53.220;6.528;2022-10-17T11:17:39;16.70;99.90
52965;DHT22;42923;53.220;6.528;2022-10-17T11:23:33;16.80;99.90
52965;DHT22;42923;53.220;6.528;2022-10-17T11:26:04;16.90;99.90
52965;DHT22;42923;53.220;6.528;2022-10-17T11:28:31;16.80;99.90
52965;DHT22;42923;53.220;6.528;2022-10-17T11:31:08;16.80;99.90
52965;DHT22;42923;53.220;6.528;2022-10-17T11:33:58;16.90;99.90
52965;DHT22;42923;53.220;6.528;2022-10-17T11:36:28;16.90;99.90
52965;DHT22;42923;53.220;6.528;2022-10-17T11:39:16;16.90;99.90
52965;DHT22;42923;53.220;6.528;2022-10-17T11:41:52;16.90;99.90
52965;DHT22;42923;53.220;6.528;2022-10-17T11:44:35;16.80;99.90
52965;DHT22;42923;53.220;6.528;2022-10-17T11:47:12;16.80;99.90
52965;DHT22;42923;53.220;6.528;2022-10-17T11:49:52;16.80;99.90
52965;DHT22;42923;53.220;6.528;2022-10-17T11:52:41;16.80;99.90
52965;DHT22;42923;53.220;6.528;2022-10-17T11:55:18;16.80;99.90
52965;DHT22;42923;53.220;6.528;2022-10-17T12:01:20;16.70;99.90
52965;DHT22;42923;53.220;6.528;2022-10-17T12:12:29;16.70;99.90
52965;DHT22;42923;53.220;6.528;2022-10-17T12:17:55;16.70;99.90
52965;DHT22;42923;53.220;6.528;2022-10-17T12:25:34;16.90;99.90
52965;DHT22;42923;53.220;6.528;2022-10-17T12:28:18;17.00;99.90
52965;DHT22;42923;53.220;6.528;2022-10-17T12:31:10;17.10;99.90
52965;DHT22;42923;53.220;6.528;2022-10-17T13:00:11;17.00;99.90
52965;DHT22;42923;53.220;6.528;2022-10-17T13:02:40;16.90;99.90
52965;DHT22;42923;53.220;6.528;2022-10-17T13:05:36;16.90;99.90
52965;DHT22;42923;53.220;6.528;2022-10-17T13:08:04;16.80;99.90
52965;DHT22;42923;53.220;6.528;2022-10-17T13:10:34;16.80;99.90
52965;DHT22;42923;53.220;6.528;2022-10-17T13:13:06;16.80;99.90
52965;DHT22;42923;53.220;6.528;2022-10-17T13:15:35;16.80;99.90
52965;DHT22;42923;53.220;6.528;2022-10-17T13:18:01;16.80;99.90
52965;DHT22;42923;53.220;6.528;2022-10-17T13:20:28;16.80;99.90
52965;DHT22;42923;53.220;6.528;2022-10-17T13:22:55;16.70;99.90
52965;DHT22;42923;53.220;6.528;2022-10-17T13:25:22;16.60;99.90
52965;DHT22;42923;53.220;6.528;2022-10-17T13:27:49;16.60;99.90
52965;DHT22;42923;53.220;6.528;2022-10-17T13:30:24;16.70;99.90
52965;DHT22;42923;53.220;6.528;2022-10-17T13:32:50;16.50;99.90
52965;DHT22;42923;53.220;6.528;2022-10-17T13:35:24;16.50;99.90
52965;DHT22;42923;53.220;6.528;2022-10-17T13:37:52;16.40;99.90
52965;DHT22;42923;53.220;6.528;2022-10-17T13:40:26;16.30;99.90
52965;DHT22;42923;53.220;6.528;2022-10-17T13:42:54;16.30;99.90
52965;DHT22;42923;53.220;6.528;2022-10-17T13:47:46;16.20;99.90
52965;DHT22;42923;53.220;6.528;2022-10-17T13:50:23;16.20;99.90
52965;DHT22;42923;53.220;6.528;2022-10-17T13:53:05;16.20;99.90
52965;DHT22;42923;53.220;6.528;2022-10-17T13:55:31;16.20;99.90
52965;DHT22;42923;53.220;6.528;2022-10-17T13:58:09;16.00;99.90
52965;DHT22;42923;53.220;6.528;2022-10-17T14:00:39;16.00;99.90
52965;DHT22;42923;53.220;6.528;2022-10-17T14:03:04;16.00;99.90
52965;DHT22;42923;53.220;6.528;2022-10-17T14:05:31;15.90;99.90
52965;DHT22;42923;53.220;6.528;2022-10-17T14:08:03;15.90;99.90
52965;DHT22;42923;53.220;6.528;2022-10-17T14:10:38;15.90;99.90
52965;DHT22;42923;53.220;6.528;2022-10-17T14:13:05;15.90;99.90
52965;DHT22;42923;53.220;6.528;2022-10-17T14:15:34;15.80;99.90
52965;DHT22;42923;53.220;6.528;2022-10-17T14:18:07;15.80;99.90
52965;DHT22;42923;53.220;6.528;2022-10-17T14:20:36;15.80;99.90
52965;DHT22;42923;53.220;6.528;2022-10-17T14:23:02;15.80;99.90
52965;DHT22;42923;53.220;6.528;2022-10-17T14:25:32;15.70;99.90
52965;DHT22;42923;53.220;6.528;2022-10-17T14:30:39;15.70;99.90
52965;DHT22;42923;53.220;6.528;2022-10-17T14:33:10;15.60;99.90
52965;DHT22;42923;53.220;6.528;2022-10-17T14:35:36;15.60;99.90
52965;DHT22;42923;53.220;6.528;2022-10-17T14:38:05;15.60;99.90
52965;DHT22;42923;53.220;6.528;2022-10-17T14:40:32;15.60;99.90
52965;DHT22;42923;53.220;6.528;2022-10-17T14:43:04;15.60;99.90
52965;DHT22;42923;53.220;6.528;2022-10-17T14:45:33;15.60;99.90
52965;DHT22;42923;53.220;6.528;2022-10-17T14:48:15;15.60;99.90
52965;DHT22;42923;53.220;6.528;2022-10-17T14:50:41;15.50;99.90
52965;DHT22;42923;53.220;6.528;2022-10-17T14:53:27;15.50;99.90
52965;DHT22;42923;53.220;6.528;2022-10-17T14:56:03;15.50;99.90
52965;DHT22;42923;53.220;6.528;2022-10-17T14:58:33;15.50;99.90
52965;DHT22;42923;53.220;6.528;2022-10-17T15:01:00;15.50;99.90
52965;DHT22;42923;53.220;6.528;2022-10-17T15:03:27;15.50;99.90
52965;DHT22;42923;53.220;6.528;2022-10-17T15:05:53;15.50;99.90
52965;DHT22;42923;53.220;6.528;2022-10-17T15:08:22;15.50;99.90
52965;DHT22;42923;53.220;6.528;2022-10-17T15:10:49;15.60;99.90
52965;DHT22;42923;53.220;6.528;2022-10-17T15:13:16;15.50;99.90
52965;DHT22;42923;53.220;6.528;2022-10-17T15:15:42;15.50;99.90
52965;DHT22;42923;53.220;6.528;2022-10-17T15:18:10;15.50;99.90
52965;DHT22;42923;53.220;6.528;2022-10-17T15:20:37;15.60;99.90
52965;DHT22;42923;53.220;6.528;2022-10-17T15:23:03;15.60;99.90
52965;DHT22;42923;53.220;6.528;2022-10-17T15:25:30;15.50;99.90
52965;DHT22;42923;53.220;6.528;2022-10-17T15:27:56;15.60;99.90
52965;DHT22;42923;53.220;6.528;2022-10-17T15:30:28;15.70;99.90
52965;DHT22;42923;53.220;6.528;2022-10-17T15:32:54;15.70;99.90
52965;DHT22;42923;53.220;6.528;2022-10-17T15:35:21;15.70;99.90
52965;DHT22;42923;53.220;6.528;2022-10-17T15:37:47;15.70;99.90
52965;DHT22;42923;53.220;6.528;2022-10-17T15:40:16;15.70;99.90
52965;DHT22;42923;53.220;6.528;2022-10-17T15:42:42;15.70;99.90
52965;DHT22;42923;53.220;6.528;2022-10-17T15:45:13;15.60;99.90
52965;DHT22;42923;53.220;6.528;2022-10-17T15:47:41;15.50;99.90
52965;DHT22;42923;53.220;6.528;2022-10-17T15:50:12;15.40;99.90
52965;DHT22;42923;53.220;6.528;2022-10-17T15:52:38;15.30;99.90
52965;DHT22;42923;53.220;6.528;2022-10-17T15:55:06;15.30;99.90
52965;DHT22;42923;53.220;6.528;2022-10-17T15:57:35;15.20;99.90
52965;DHT22;42923;53.220;6.528;2022-10-17T16:00:05;15.20;99.90
52965;DHT22;42923;53.220;6.528;2022-10-17T16:02:35;15.20;99.90
52965;DHT22;42923;53.220;6.528;2022-10-17T16:05:00;15.10;99.90
52965;DHT22;42923;53.220;6.528;2022-10-17T16:07:26;15.10;99.90
52965;DHT22;42923;53.220;6.528;2022-10-17T16:09:52;15.00;99.90
52965;DHT22;42923;53.220;6.528;2022-10-17T16:12:22;15.00;99.90
52965;DHT22;42923;53.220;6.528;2022-10-17T16:14:48;15.10;99.90
52965;DHT22;42923;53.220;6.528;2022-10-17T16:17:15;14.90;99.90
52965;DHT22;42923;53.220;6.528;2022-10-17T16:19:41;14.90;99.90
52965;DHT22;42923;53.220;6.528;2022-10-17T16:22:31;14.90;99.90
52965;DHT22;42923;53.220;6.528;2022-10-17T16:24:57;14.80;99.90
52965;DHT22;42923;53.220;6.528;2022-10-17T16:27:32;14.80;99.90
52965;DHT22;42923;53.220;6.528;2022-10-17T16:29:58;14.80;99.90
52965;DHT22;42923;53.220;6.528;2022-10-17T16:32:23;14.70;99.90
52965;DHT22;42923;53.220;6.528;2022-10-17T16:34:49;14.70;99.90
52965;DHT22;42923;53.220;6.528;2022-10-17T16:37:15;14.60;99.90
52965;DHT22;42923;53.220;6.528;2022-10-17T16:39:40;14.60;99.90
52965;DHT22;42923;53.220;6.528;2022-10-17T16:42:06;14.50;99.90
52965;DHT22;42923;53.220;6.528;2022-10-17T16:44:32;14.50;99.90
52965;DHT22;42923;53.220;6.528;2022-10-17T16:46:58;14.40;99.90
52965;DHT22;42923;53.220;6.528;2022-10-17T16:49:23;14.50;99.90
52965;DHT22;42923;53.220;6.528;2022-10-17T16:51:49;14.40;99.90
52965;DHT22;42923;53.220;6.528;2022-10-17T16:54:15;14.40;99.90
52965;DHT22;42923;53.220;6.528;2022-10-17T16:56:41;14.40;99.90
52965;DHT22;42923;53.220;6.528;2022-10-17T16:59:08;14.30;99.90
52965;DHT22;42923;53.220;6.528;2022-10-17T17:01:33;14.30;99.90
52965;DHT22;42923;53.220;6.528;2022-10-17T17:03:59;14.20;99.90
52965;DHT22;42923;53.220;6.528;2022-10-17T17:06:29;14.20;99.90
52965;DHT22;42923;53.220;6.528;2022-10-17T17:08:55;14.30;99.90
52965;DHT22;42923;53.220;6.528;2022-10-17T17:11:24;14.10;99.90
52965;DHT22;42923;53.220;6.528;2022-10-17T17:13:50;14.10;99.90
52965;DHT22;42923;53.220;6.528;2022-10-17T17:16:19;14.10;99.90
52965;DHT22;42923;53.220;6.528;2022-10-17T17:18:46;14.10;99.90
52965;DHT22;42923;53.220;6.528;2022-10-17T17:21:14;14.00;99.90
52965;DHT22;42923;53.220;6.528;2022-10-17T17:23:41;14.00;99.90
52965;DHT22;42923;53.220;6.528;2022-10-17T17:26:18;14.10;99.90
52965;DHT22;42923;53.220;6.528;2022-10-17T17:28:44;14.00;99.90
52965;DHT22;42923;53.220;6.528;2022-10-17T17:31:17;14.00;99.90
52965;DHT22;42923;53.220;6.528;2022-10-17T17:33:44;13.90;99.90
52965;DHT22;42923;53.220;6.528;2022-10-17T17:36:20;13.90;99.90
52965;DHT22;42923;53.220;6.528;2022-10-17T17:38:47;13.90;99.90
52965;DHT22;42923;53.220;6.528;2022-10-17T17:41:17;14.00;99.90
52965;DHT22;42923;53.220;6.528;2022-10-17T17:43:44;14.00;99.90
52965;DHT22;42923;53.220;6.528;2022-10-17T17:46:13;14.00;99.90
52965;DHT22;42923;53.220;6.528;2022-10-17T17:48:40;13.90;99.90
52965;DHT22;42923;53.220;6.528;2022-10-17T17:51:15;13.90;99.90
52965;DHT22;42923;53.220;6.528;2022-10-17T17:53:41;13.90;99.90
52965;DHT22;42923;53.220;6.528;2022-10-17T17:56:14;13.90;99.90
52965;DHT22;42923;53.220;6.528;2022-10-17T17:58:41;13.90;99.90
52965;DHT22;42923;53.220;6.528;2022-10-17T18:01:21;13.90;99.90